createdAt,value
2023-05-09T00:02:12.978Z,52.65
2023-05-09T00:04:42.826Z,52.82
2023-05-09T00:07:11.591Z,52.75
2023-05-09T00:09:40.453Z,52.91
2023-05-09T00:12:09.777Z,52.95
2023-05-09T00:14:40.869Z,52.82
2023-05-09T00:17:09.870Z,52.87
2023-05-09T00:19:39.430Z,52.94
2023-05-09T00:22:09.522Z,52.87
2023-05-09T00:24:38.577Z,53.12
2023-05-09T00:27:07.194Z,52.98
2023-05-09T00:29:36.312Z,53.19
2023-05-09T00:32:05.254Z,53.30
2023-05-09T00:34:34.325Z,53.13
2023-05-09T00:37:02.848Z,53.14
2023-05-09T00:39:31.696Z,53.17
2023-05-09T00:42:00.251Z,53.27
2023-05-09T00:44:29.346Z,53.26
2023-05-09T00:46:57.897Z,53.20
2023-05-09T00:49:27.024Z,53.19
2023-05-09T00:51:56.896Z,53.25
2023-05-09T00:54:26.378Z,53.24
2023-05-09T00:56:54.984Z,53.29
2023-05-09T00:59:24.371Z,53.22
2023-05-09T01:01:52.897Z,53.37
2023-05-09T01:04:21.904Z,53.32
2023-05-09T01:07:31.353Z,53.34
2023-05-09T01:10:29.565Z,53.29
2023-05-09T01:13:14.658Z,53.22
2023-05-09T01:16:35.523Z,53.31
2023-05-09T01:19:37.056Z,53.08
2023-05-09T01:22:09.165Z,53.25
2023-05-09T01:25:30.668Z,53.15
2023-05-09T01:28:35.933Z,53.22
2023-05-09T01:31:05.161Z,53.16
2023-05-09T01:33:34.537Z,53.17
2023-05-09T01:36:08.325Z,52.95
2023-05-09T01:38:38.752Z,52.90
2023-05-09T01:41:07.389Z,52.78
2023-05-09T01:43:36.369Z,52.46
2023-05-09T01:46:06.271Z,52.41
2023-05-09T01:48:36.763Z,52.16
2023-05-09T01:51:05.902Z,51.99
2023-05-09T01:53:35.010Z,51.97
2023-05-09T01:56:04.906Z,51.94
2023-05-09T01:58:34.207Z,51.92
2023-05-09T02:01:02.821Z,51.75
2023-05-09T02:03:34.231Z,51.52
2023-05-09T02:06:02.791Z,51.53
2023-05-09T02:08:32.311Z,51.55
2023-05-09T02:11:02.130Z,51.22
2023-05-09T02:13:31.376Z,50.90
2023-05-09T02:16:00.090Z,50.80
2023-05-09T02:18:29.697Z,50.78
2023-05-09T02:20:58.360Z,50.98
2023-05-09T02:23:27.207Z,50.84
2023-05-09T02:25:55.784Z,50.72
2023-05-09T02:28:25.750Z,50.48
2023-05-09T02:30:54.308Z,50.33
2023-05-09T02:33:23.620Z,50.34
2023-05-09T02:35:52.189Z,50.33
2023-05-09T02:38:21.696Z,49.93
2023-05-09T02:40:52.267Z,50.01
2023-05-09T02:43:22.343Z,50.03
2023-05-09T02:45:51.138Z,49.69
2023-05-09T02:48:20.160Z,49.60
2023-05-09T02:50:48.700Z,49.26
2023-05-09T02:53:17.522Z,49.04
2023-05-09T02:55:46.288Z,48.94
2023-05-09T02:58:15.499Z,49.03
2023-05-09T03:00:45.707Z,48.66
2023-05-09T03:03:18.321Z,48.49
2023-05-09T03:05:47.783Z,48.26
2023-05-09T03:08:16.620Z,48.22
2023-05-09T03:10:45.873Z,47.91
2023-05-09T03:13:15.521Z,47.83
2023-05-09T03:15:44.109Z,47.74
2023-05-09T03:18:14.997Z,47.31
2023-05-09T03:20:43.581Z,47.64
2023-05-09T03:23:12.403Z,47.44
2023-05-09T03:25:41.105Z,47.37
2023-05-09T03:28:09.965Z,46.98
2023-05-09T03:30:38.852Z,47.21
2023-05-09T03:33:11.689Z,47.08
2023-05-09T03:35:40.247Z,47.06
2023-05-09T03:38:10.150Z,46.85
2023-05-09T03:40:39.215Z,47.16
2023-05-09T03:43:11.803Z,46.87
2023-05-09T03:45:40.686Z,47.03
2023-05-09T03:48:12.159Z,46.77
2023-05-09T03:50:46.613Z,46.70
2023-05-09T03:53:17.565Z,46.78
2023-05-09T03:55:48.697Z,46.92
2023-05-09T03:58:19.812Z,46.94
2023-05-09T04:00:49.130Z,46.84
2023-05-09T04:03:23.573Z,46.93
2023-05-09T04:05:54.584Z,46.60
2023-05-09T04:08:32.527Z,46.84
2023-05-09T04:11:02.479Z,46.83
2023-05-09T04:13:33.210Z,46.73
2023-05-09T04:16:05.782Z,46.73
2023-05-09T04:18:36.807Z,46.59
2023-05-09T04:21:06.486Z,46.98
2023-05-09T04:23:35.410Z,47.18
2023-05-09T04:26:04.611Z,46.76
2023-05-09T04:28:33.831Z,46.71
2023-05-09T04:31:03.277Z,46.54
2023-05-09T04:33:33.587Z,46.46
2023-05-09T04:36:04.571Z,46.40
2023-05-09T04:38:33.674Z,46.71
2023-05-09T04:41:03.402Z,46.81
2023-05-09T04:43:32.866Z,46.85
2023-05-09T04:46:01.468Z,46.98
2023-05-09T04:48:30.568Z,47.24
2023-05-09T04:50:59.176Z,47.22
2023-05-09T04:53:28.586Z,46.95
2023-05-09T04:55:58.753Z,47.24
2023-05-09T04:58:27.738Z,47.42
2023-05-09T05:00:58.125Z,47.44
2023-05-09T05:03:27.009Z,47.41
2023-05-09T05:05:56.589Z,47.53
2023-05-09T05:08:25.695Z,47.46
2023-05-09T05:10:55.133Z,47.35
2023-05-09T05:13:24.848Z,47.31
2023-05-09T05:15:59.075Z,47.19
2023-05-09T05:18:28.107Z,47.12
2023-05-09T05:20:56.753Z,46.95
2023-05-09T05:23:27.385Z,46.80
2023-05-09T05:25:57.279Z,46.73
2023-05-09T05:28:26.954Z,46.56
2023-05-09T05:30:55.694Z,46.63
2023-05-09T05:33:24.846Z,46.45
2023-05-09T05:35:54.193Z,46.59
2023-05-09T05:38:24.085Z,46.63
2023-05-09T05:40:56.408Z,46.41
2023-05-09T05:43:26.728Z,46.48
2023-05-09T05:45:56.011Z,46.37
2023-05-09T05:48:26.934Z,46.64
2023-05-09T05:50:56.698Z,46.50
2023-05-09T05:53:30.817Z,46.45
2023-05-09T05:56:01.277Z,46.50
2023-05-09T05:58:31.025Z,46.69
2023-05-09T06:00:59.887Z,46.55
2023-05-09T06:03:28.829Z,46.60
2023-05-09T06:06:01.801Z,46.58
2023-05-09T06:08:31.122Z,46.25
2023-05-09T06:11:01.877Z,45.96
2023-05-09T06:13:30.842Z,45.34
2023-05-09T06:16:18.725Z,45.59
2023-05-09T06:18:51.506Z,45.45
2023-05-09T06:21:23.116Z,45.26
2023-05-09T06:24:07.724Z,45.20
2023-05-09T06:26:38.957Z,45.49
2023-05-09T06:29:08.140Z,45.24
2023-05-09T06:31:39.273Z,45.48
2023-05-09T06:34:08.714Z,45.50
2023-05-09T06:36:37.309Z,45.41
2023-05-09T06:39:06.230Z,45.87
2023-05-09T06:41:34.796Z,45.78
2023-05-09T06:44:03.642Z,46.06
2023-05-09T06:46:32.261Z,46.10
2023-05-09T06:49:02.969Z,45.91
2023-05-09T06:51:31.685Z,45.78
2023-05-09T06:54:00.649Z,45.54
2023-05-09T06:56:29.185Z,45.54
2023-05-09T06:58:58.195Z,45.55
2023-05-09T07:01:27.190Z,45.48
2023-05-09T07:03:56.287Z,45.25
2023-05-09T07:06:24.837Z,45.33
2023-05-09T07:08:53.690Z,45.30
2023-05-09T07:11:22.542Z,45.08
2023-05-09T07:13:51.428Z,44.77
2023-05-09T07:16:23.127Z,44.70
2023-05-09T07:18:52.116Z,44.55
2023-05-09T07:21:20.740Z,44.50
2023-05-09T07:23:49.701Z,44.49
2023-05-09T07:26:18.271Z,44.50
2023-05-09T07:28:47.180Z,44.36
2023-05-09T07:31:15.814Z,44.30
2023-05-09T07:33:44.714Z,44.11
2023-05-09T07:36:15.287Z,44.03
2023-05-09T07:38:44.179Z,43.84
2023-05-09T07:41:12.773Z,44.08
2023-05-09T07:43:41.885Z,44.14
2023-05-09T07:46:10.543Z,43.98
2023-05-09T07:48:40.026Z,43.91
2023-05-09T07:51:08.626Z,43.85
2023-05-09T07:53:37.760Z,43.83
2023-05-09T07:56:09.701Z,43.94
2023-05-09T07:58:38.630Z,43.55
2023-05-09T08:01:07.145Z,43.42
2023-05-09T08:03:36.192Z,43.52
2023-05-09T08:06:04.798Z,43.73
2023-05-09T08:08:33.777Z,43.38
2023-05-09T08:11:02.386Z,43.33
2023-05-09T08:13:31.213Z,43.45
2023-05-09T08:16:00.948Z,43.38
2023-05-09T08:18:29.903Z,43.50
2023-05-09T08:21:00.020Z,43.92
2023-05-09T08:23:30.687Z,43.72
2023-05-09T08:25:59.402Z,43.60
2023-05-09T08:28:31.053Z,43.55
2023-05-09T08:30:59.587Z,43.55
2023-05-09T08:33:28.504Z,43.71
2023-05-09T08:35:57.058Z,43.55
2023-05-09T08:38:26.233Z,43.52
2023-05-09T08:41:01.171Z,43.61
2023-05-09T08:43:30.100Z,43.56
2023-05-09T08:46:08.811Z,43.56
2023-05-09T08:48:40.709Z,43.35
2023-05-09T08:51:10.576Z,43.29
2023-05-09T08:53:39.375Z,43.22
2023-05-09T08:56:08.319Z,43.33
2023-05-09T08:58:37.108Z,43.42
2023-05-09T09:01:07.206Z,43.42
2023-05-09T09:03:36.928Z,43.31
2023-05-09T09:06:07.142Z,43.73
2023-05-09T09:08:36.199Z,43.38
2023-05-09T09:11:05.021Z,43.52
2023-05-09T09:13:35.198Z,43.64
2023-05-09T09:16:04.083Z,43.79
2023-05-09T09:18:33.396Z,43.72
2023-05-09T09:21:07.868Z,43.78
2023-05-09T09:23:37.636Z,43.86
2023-05-09T09:26:06.083Z,43.87
2023-05-09T09:28:35.246Z,44.00
2023-05-09T09:31:03.970Z,43.98
2023-05-09T09:33:36.304Z,43.93
2023-05-09T09:36:04.955Z,44.13
2023-05-09T09:38:40.810Z,43.98
2023-05-09T09:41:11.302Z,43.90
2023-05-09T09:43:40.135Z,44.20
2023-05-09T09:46:10.222Z,43.96
2023-05-09T09:48:39.804Z,44.41
2023-05-09T09:51:11.620Z,44.50
2023-05-09T09:53:44.028Z,44.30
2023-05-09T09:56:12.480Z,44.41
2023-05-09T09:58:41.485Z,44.40
2023-05-09T10:01:14.269Z,44.37
2023-05-09T10:03:45.427Z,44.53
2023-05-09T10:06:15.402Z,44.11
2023-05-09T10:08:47.617Z,44.21
2023-05-09T10:11:16.547Z,44.03
2023-05-09T10:13:45.489Z,44.21
2023-05-09T10:16:14.126Z,44.20
2023-05-09T10:18:43.322Z,43.62
2023-05-09T10:21:14.158Z,43.31
2023-05-09T10:23:47.080Z,42.83
2023-05-09T10:26:27.700Z,43.12
2023-05-09T10:28:57.692Z,43.03
2023-05-09T10:31:27.598Z,42.91
2023-05-09T10:33:56.595Z,43.13
2023-05-09T10:36:25.237Z,43.28
2023-05-09T10:38:55.237Z,43.14
2023-05-09T10:41:24.286Z,43.37
2023-05-09T10:43:57.019Z,43.82
2023-05-09T10:46:27.469Z,44.03
2023-05-09T10:48:56.754Z,43.58
2023-05-09T10:51:25.389Z,43.08
2023-05-09T10:53:56.122Z,43.59
2023-05-09T10:56:27.453Z,43.33
2023-05-09T10:58:56.715Z,43.51
2023-05-09T11:01:37.535Z,43.56
2023-05-09T11:04:13.309Z,43.58
2023-05-09T11:06:55.864Z,43.49
2023-05-09T11:09:33.613Z,43.48
2023-05-09T11:12:05.255Z,43.29
2023-05-09T11:14:41.573Z,43.25
2023-05-09T11:17:22.956Z,43.07
2023-05-09T11:19:52.144Z,43.17
2023-05-09T11:22:22.506Z,43.42
2023-05-09T11:24:54.191Z,43.31
2023-05-09T11:27:24.285Z,43.25
2023-05-09T11:29:57.056Z,43.37
2023-05-09T11:32:31.812Z,43.54
2023-05-09T11:35:30.418Z,43.34
2023-05-09T11:38:04.185Z,43.59
2023-05-09T11:40:34.344Z,43.41
2023-05-09T11:43:03.163Z,43.68
2023-05-09T11:45:33.421Z,43.56
2023-05-09T11:48:03.505Z,43.65
2023-05-09T11:50:32.956Z,43.41
2023-05-09T11:53:01.669Z,43.87
2023-05-09T11:55:31.748Z,43.36
2023-05-09T11:58:00.565Z,43.76
2023-05-09T12:00:29.578Z,43.73
2023-05-09T12:02:58.239Z,43.57
2023-05-09T12:05:27.322Z,43.78
2023-05-09T12:07:55.987Z,43.75
2023-05-09T12:10:24.795Z,43.63
2023-05-09T12:12:55.765Z,43.78
2023-05-09T12:15:25.728Z,44.30
2023-05-09T12:18:08.164Z,44.14
2023-05-09T12:20:52.362Z,44.29
2023-05-09T12:23:20.896Z,44.12
2023-05-09T12:25:56.836Z,44.58
2023-05-09T12:28:25.930Z,44.66
2023-05-09T12:30:54.862Z,44.24
2023-05-09T12:33:23.371Z,44.51
2023-05-09T12:36:06.690Z,44.45
2023-05-09T12:38:35.468Z,44.43
2023-05-09T12:41:10.704Z,44.32
2023-05-09T12:43:50.209Z,44.34
2023-05-09T12:46:20.266Z,44.42
2023-05-09T12:48:49.632Z,44.48
2023-05-09T12:51:21.967Z,44.32
2023-05-09T12:53:50.697Z,44.51
2023-05-09T12:56:20.641Z,44.41
2023-05-09T12:58:53.370Z,44.38
2023-05-09T13:01:25.230Z,44.34
2023-05-09T13:04:04.566Z,44.32
2023-05-09T13:06:35.991Z,44.39
2023-05-09T13:09:08.232Z,44.44
2023-05-09T13:11:38.086Z,44.58
2023-05-09T13:14:06.639Z,44.55
2023-05-09T13:16:35.827Z,44.66
2023-05-09T13:19:05.680Z,44.83
2023-05-09T13:21:35.625Z,44.66
2023-05-09T13:24:07.898Z,44.57
2023-05-09T13:26:36.778Z,44.44
2023-05-09T13:29:05.310Z,44.53
2023-05-09T13:31:34.330Z,44.49
2023-05-09T13:34:02.876Z,44.46
2023-05-09T13:36:33.065Z,44.57
2023-05-09T13:39:01.592Z,44.41
2023-05-09T13:41:36.343Z,44.46
2023-05-09T13:44:06.622Z,44.40
2023-05-09T13:46:35.616Z,44.39
2023-05-09T13:49:04.573Z,44.26
2023-05-09T13:51:33.807Z,44.19
2023-05-09T13:54:02.458Z,44.41
2023-05-09T13:56:31.319Z,44.31
2023-05-09T13:58:59.913Z,44.33
2023-05-09T14:01:28.840Z,44.13
2023-05-09T14:03:57.439Z,44.34
2023-05-09T14:06:26.540Z,44.51
2023-05-09T14:08:55.892Z,44.52
2023-05-09T14:11:25.735Z,44.29
2023-05-09T14:13:54.291Z,44.38
2023-05-09T14:16:23.497Z,44.47
2023-05-09T14:18:52.014Z,44.41
2023-05-09T14:21:20.991Z,44.32
2023-05-09T14:23:49.913Z,44.40
2023-05-09T14:26:19.405Z,44.45
2023-05-09T14:28:48.365Z,44.25
2023-05-09T14:31:18.276Z,44.13
2023-05-09T14:33:46.919Z,44.00
2023-05-09T14:36:16.014Z,44.11
2023-05-09T14:38:47.186Z,44.06
2023-05-09T14:41:16.201Z,44.25
2023-05-09T14:43:44.798Z,44.28
2023-05-09T14:46:13.721Z,44.18
2023-05-09T14:48:42.209Z,44.16
2023-05-09T14:51:12.215Z,44.22
2023-05-09T14:53:42.094Z,44.37
2023-05-09T14:56:12.483Z,44.39
2023-05-09T14:58:41.059Z,44.47
2023-05-09T15:01:10.774Z,44.48
2023-05-09T15:03:39.577Z,44.54
2023-05-09T15:06:08.626Z,44.64
2023-05-09T15:08:37.584Z,44.72
2023-05-09T15:11:08.093Z,44.83
2023-05-09T15:13:37.773Z,44.71
2023-05-09T15:16:06.821Z,44.54
2023-05-09T15:18:35.598Z,44.60
2023-05-09T15:21:04.805Z,44.43
2023-05-09T15:23:33.812Z,44.42
2023-05-09T15:26:03.015Z,44.35
2023-05-09T15:28:31.614Z,44.48
2023-05-09T15:31:00.828Z,44.41
2023-05-09T15:33:29.553Z,44.44
2023-05-09T15:36:00.203Z,44.22
2023-05-09T15:38:28.913Z,44.32
2023-05-09T15:40:57.810Z,44.30
2023-05-09T15:43:26.300Z,44.19
2023-05-09T15:45:55.256Z,44.20
2023-05-09T15:48:24.011Z,44.10
2023-05-09T15:50:53.885Z,44.21
2023-05-09T15:53:23.699Z,44.20
2023-05-09T15:55:52.574Z,44.15
2023-05-09T15:58:21.121Z,44.15
2023-05-09T16:00:50.050Z,44.12
2023-05-09T16:03:19.368Z,44.08
2023-05-09T16:05:48.412Z,44.10
2023-05-09T16:08:17.271Z,44.27
2023-05-09T16:10:49.222Z,44.30
2023-05-09T16:13:18.042Z,44.40
2023-05-09T16:15:48.431Z,44.54
2023-05-09T16:18:17.028Z,44.72
2023-05-09T16:20:45.945Z,44.75
2023-05-09T16:23:14.482Z,44.82
2023-05-09T16:25:45.154Z,44.95
2023-05-09T16:28:13.732Z,44.98
2023-05-09T16:30:43.740Z,44.99
2023-05-09T16:33:13.186Z,45.11
2023-05-09T16:35:42.082Z,44.89
2023-05-09T16:38:10.794Z,44.73
2023-05-09T16:40:39.952Z,44.66
2023-05-09T16:43:08.645Z,44.72
2023-05-09T16:45:38.831Z,44.46
2023-05-09T16:48:07.591Z,44.61
2023-05-09T16:50:38.581Z,44.83
2023-05-09T16:53:07.123Z,44.69
2023-05-09T16:55:36.087Z,44.72
2023-05-09T16:58:04.766Z,44.64
2023-05-09T17:00:34.823Z,44.64
2023-05-09T17:03:03.547Z,44.74
2023-05-09T17:05:32.522Z,44.65
2023-05-09T17:08:01.189Z,44.44
2023-05-09T17:10:30.076Z,44.54
2023-05-09T17:12:58.583Z,44.65
2023-05-09T17:15:28.824Z,44.68
2023-05-09T17:17:57.533Z,44.72
2023-05-09T17:20:27.253Z,44.66
2023-05-09T17:22:56.521Z,44.70
2023-05-09T17:25:25.371Z,44.72
2023-05-09T17:27:53.923Z,44.85
2023-05-09T17:30:23.394Z,44.67
2023-05-09T17:32:52.386Z,44.84
2023-05-09T17:35:22.736Z,45.04
2023-05-09T17:37:51.560Z,45.00
2023-05-09T17:40:21.824Z,44.89
2023-05-09T17:42:50.410Z,45.00
2023-05-09T17:45:19.505Z,44.82
2023-05-09T17:47:48.096Z,44.90
2023-05-09T17:50:17.700Z,44.95
2023-05-09T17:52:46.482Z,44.91
2023-05-09T17:55:15.608Z,45.22
2023-05-09T17:57:44.098Z,44.93
2023-05-09T18:00:14.722Z,45.50
2023-05-09T18:02:43.905Z,45.53
2023-05-09T18:05:13.830Z,45.49
2023-05-09T18:07:42.330Z,45.42
2023-05-09T18:10:11.917Z,45.45
2023-05-09T18:12:40.498Z,45.50
2023-05-09T18:15:24.315Z,45.81
2023-05-09T18:17:54.923Z,45.67
2023-05-09T18:20:23.563Z,45.17
2023-05-09T18:22:53.954Z,44.84
2023-05-09T18:25:22.617Z,44.26
2023-05-09T18:27:51.693Z,43.70
2023-05-09T18:30:22.268Z,43.65
2023-05-09T18:32:51.325Z,43.43
2023-05-09T18:35:20.111Z,43.18
2023-05-09T18:37:49.621Z,42.06
2023-05-09T18:40:18.461Z,42.11
2023-05-09T18:42:47.549Z,42.19
2023-05-09T18:45:16.231Z,41.96
2023-05-09T18:47:46.167Z,41.65
2023-05-09T18:50:15.861Z,41.66
2023-05-09T18:52:46.262Z,41.32
2023-05-09T18:55:15.094Z,41.51
2023-05-09T18:57:43.762Z,41.30
2023-05-09T19:00:13.160Z,41.13
2023-05-09T19:02:42.348Z,40.98
2023-05-09T19:05:11.182Z,41.27
2023-05-09T19:07:40.203Z,41.19
2023-05-09T19:10:08.988Z,41.37
2023-05-09T19:12:37.894Z,41.43
2023-05-09T19:15:06.931Z,41.47
2023-05-09T19:17:36.820Z,41.66
2023-05-09T19:20:06.297Z,41.65
2023-05-09T19:22:36.645Z,41.91
2023-05-09T19:25:05.500Z,42.11
2023-05-09T19:27:34.101Z,42.29
2023-05-09T19:30:04.603Z,42.43
2023-05-09T19:32:33.216Z,42.41
2023-05-09T19:35:01.581Z,42.66
2023-05-09T19:37:30.742Z,42.71
2023-05-09T19:39:59.101Z,43.24
2023-05-09T19:42:27.722Z,43.18
2023-05-09T19:44:55.983Z,43.23
2023-05-09T19:47:26.041Z,43.15
2023-05-09T19:49:54.905Z,43.38
2023-05-09T19:52:23.603Z,43.72
2023-05-09T19:54:52.417Z,43.87
2023-05-09T19:57:21.951Z,43.94
2023-05-09T19:59:50.293Z,43.95
2023-05-09T20:02:20.033Z,44.25
2023-05-09T20:04:50.241Z,44.32
2023-05-09T20:07:19.031Z,44.82
2023-05-09T20:09:47.327Z,44.61
2023-05-09T20:12:17.167Z,44.58
2023-05-09T20:14:45.459Z,44.69
2023-05-09T20:17:14.084Z,44.75
2023-05-09T20:19:42.372Z,44.88
2023-05-09T20:22:11.432Z,45.02
2023-05-09T20:24:39.719Z,44.97
2023-05-09T20:27:10.493Z,45.41
2023-05-09T20:29:39.913Z,45.84
2023-05-09T20:32:08.689Z,46.10
2023-05-09T20:34:37.444Z,46.59
2023-05-09T20:37:07.030Z,46.84
2023-05-09T20:39:35.367Z,46.67
2023-05-09T20:42:06.151Z,46.80
2023-05-09T20:44:34.392Z,46.20
2023-05-09T20:47:03.146Z,45.94
2023-05-09T20:49:31.864Z,46.24
2023-05-09T20:52:01.357Z,46.18
2023-05-09T20:54:31.344Z,46.58
2023-05-09T20:57:00.373Z,46.39
2023-05-09T20:59:29.523Z,46.69
2023-05-09T21:01:58.557Z,46.52
2023-05-09T21:04:26.860Z,46.42
2023-05-09T21:06:56.928Z,46.66
2023-05-09T21:09:25.795Z,47.31
2023-05-09T21:11:54.526Z,47.53
2023-05-09T21:14:23.373Z,47.58
2023-05-09T21:16:55.119Z,47.71
2023-05-09T21:19:24.083Z,48.11
2023-05-09T21:21:53.084Z,48.32
2023-05-09T21:24:21.916Z,48.34
2023-05-09T21:26:51.942Z,48.06
2023-05-09T21:29:20.581Z,48.54
2023-05-09T21:31:49.410Z,48.62
2023-05-09T21:34:18.882Z,47.79
2023-05-09T21:36:47.657Z,47.49
2023-05-09T21:39:16.182Z,47.04
2023-05-09T21:41:45.772Z,46.87
2023-05-09T21:44:15.252Z,46.74
2023-05-09T21:46:46.952Z,46.79
2023-05-09T21:49:18.527Z,46.65
2023-05-09T21:51:47.520Z,46.67
2023-05-09T21:54:16.180Z,46.70
2023-05-09T21:56:45.065Z,46.62
2023-05-09T21:59:14.056Z,46.76
2023-05-09T22:01:45.708Z,46.48
2023-05-09T22:04:15.100Z,46.69
2023-05-09T22:06:44.089Z,46.76
2023-05-09T22:09:12.728Z,46.75
2023-05-09T22:11:41.623Z,46.63
2023-05-09T22:14:10.539Z,46.90
2023-05-09T22:16:39.354Z,46.82
2023-05-09T22:19:08.681Z,46.78
2023-05-09T22:21:37.501Z,46.95
2023-05-09T22:24:08.072Z,46.76
2023-05-09T22:26:36.932Z,46.83
2023-05-09T22:29:07.032Z,46.74
2023-05-09T22:31:36.069Z,46.81
2023-05-09T22:34:04.887Z,46.53
2023-05-09T22:36:33.715Z,46.73
2023-05-09T22:39:02.227Z,46.56
2023-05-09T22:41:30.994Z,46.60
2023-05-09T22:43:59.576Z,46.63
2023-05-09T22:46:28.397Z,46.65
2023-05-09T22:48:56.977Z,46.57
2023-05-09T22:51:25.875Z,46.44
2023-05-09T22:53:54.419Z,46.47
2023-05-09T22:56:23.241Z,46.40
2023-05-09T22:58:51.720Z,46.34
2023-05-09T23:01:20.601Z,46.56
2023-05-09T23:03:49.245Z,46.50
2023-05-09T23:06:18.111Z,46.56
2023-05-09T23:08:46.683Z,46.37
2023-05-09T23:11:15.515Z,46.37
2023-05-09T23:13:44.055Z,46.16
2023-05-09T23:16:12.978Z,46.19
2023-05-09T23:18:41.531Z,46.12
2023-05-09T23:21:11.491Z,46.11
2023-05-09T23:23:39.982Z,45.97
2023-05-09T23:26:10.313Z,45.97
2023-05-09T23:28:38.919Z,45.73
2023-05-09T23:31:07.794Z,45.77
2023-05-09T23:33:36.464Z,45.63
2023-05-09T23:36:05.545Z,45.51
2023-05-09T23:38:34.054Z,45.63
2023-05-09T23:41:02.919Z,45.53
2023-05-09T23:43:31.432Z,45.56
2023-05-09T23:46:00.258Z,45.56
2023-05-09T23:48:28.846Z,45.30
2023-05-09T23:50:57.715Z,45.25
2023-05-09T23:53:26.498Z,45.18
2023-05-09T23:55:55.361Z,45.24
2023-05-09T23:58:23.948Z,45.01
